createdAt,value
2018-08-24T00:00:49.722Z,98503.30
2018-08-24T00:03:21.312Z,98498.14
2018-08-24T00:05:52.892Z,98496.99
2018-08-24T00:08:24.168Z,98496.82
2018-08-24T00:10:54.847Z,98499.33
2018-08-24T00:13:26.083Z,98494.52
2018-08-24T00:15:57.653Z,98487.39
2018-08-24T00:18:30.437Z,98490.69
2018-08-24T00:21:01.322Z,98489.38
2018-08-24T00:23:32.220Z,98482.61
2018-08-24T00:26:02.829Z,98495.66
2018-08-24T00:28:35.444Z,98486.58
2018-08-24T00:31:06.103Z,98488.05
2018-08-24T00:33:37.068Z,98484.42
2018-08-24T00:36:07.887Z,98485.08
2018-08-24T00:38:38.620Z,98469.70
2018-08-24T00:41:09.164Z,98468.55
2018-08-24T00:43:40.035Z,98470.85
2018-08-24T00:46:11.017Z,98463.09
2018-08-24T00:48:41.481Z,98458.95
2018-08-24T00:51:12.037Z,98456.65
2018-08-24T00:53:42.535Z,98462.25
2018-08-24T00:56:13.399Z,98467.22
2018-08-24T00:58:43.870Z,98461.27
2018-08-24T01:01:14.596Z,98459.42
2018-08-24T01:03:45.158Z,98462.55
2018-08-24T01:06:18.402Z,98461.89
2018-08-24T01:08:49.088Z,98460.25
2018-08-24T01:11:19.677Z,98459.23
2018-08-24T01:13:51.945Z,98447.63
2018-08-24T01:16:27.524Z,98447.75
2018-08-24T01:18:57.959Z,98446.59
2018-08-24T01:21:28.714Z,98450.20
2018-08-24T01:23:59.109Z,98447.89
2018-08-24T01:26:29.766Z,98447.53
2018-08-24T01:29:00.481Z,98446.86
2018-08-24T01:31:31.170Z,98443.37
2018-08-24T01:34:02.367Z,98446.36
2018-08-24T01:36:32.866Z,98443.86
2018-08-24T01:39:03.433Z,98445.83
2018-08-24T01:41:33.897Z,98443.86
2018-08-24T01:44:04.694Z,98449.00
2018-08-24T01:46:35.163Z,98450.81
2018-08-24T01:49:05.682Z,98449.48
2018-08-24T01:51:36.227Z,98455.08
2018-08-24T01:54:06.682Z,98449.95
2018-08-24T01:56:37.137Z,98440.20
2018-08-24T01:59:08.435Z,98436.41
2018-08-24T02:01:39.659Z,98442.84
2018-08-24T02:04:09.990Z,98445.15
2018-08-24T02:06:40.863Z,98442.67
2018-08-24T02:09:13.415Z,98439.16
2018-08-24T02:11:43.974Z,98441.13
2018-08-24T02:14:19.724Z,98434.28
2018-08-24T02:16:50.269Z,98425.75
2018-08-24T02:19:24.611Z,98428.98
2018-08-24T02:22:00.166Z,98425.98
2018-08-24T02:24:30.518Z,98428.75
2018-08-24T02:27:01.005Z,98422.64
2018-08-24T02:29:31.671Z,98425.95
2018-08-24T02:32:01.997Z,98411.09
2018-08-24T02:34:32.382Z,98411.44
2018-08-24T02:37:02.829Z,98412.58
2018-08-24T02:39:33.612Z,98402.83
2018-08-24T02:42:04.337Z,98403.13
2018-08-24T02:44:34.869Z,98401.63
2018-08-24T02:47:06.563Z,98401.97
2018-08-24T02:49:37.497Z,98398.20
2018-08-24T02:52:08.046Z,98400.19
2018-08-24T02:54:38.768Z,98402.48
2018-08-24T02:57:09.338Z,98401.52
2018-08-24T02:59:39.759Z,98394.73
2018-08-24T03:02:10.227Z,98397.20
2018-08-24T03:04:40.630Z,98392.28
2018-08-24T03:07:12.241Z,98401.00
2018-08-24T03:09:42.580Z,98394.41
2018-08-24T03:12:12.935Z,98393.63
2018-08-24T03:14:43.344Z,98388.99
2018-08-24T03:17:18.822Z,98389.96
2018-08-24T03:19:49.421Z,98387.81
2018-08-24T03:22:20.384Z,98381.70
2018-08-24T03:24:50.724Z,98380.03
2018-08-24T03:27:21.119Z,98381.33
2018-08-24T03:29:51.628Z,98382.79
2018-08-24T03:32:22.044Z,98383.78
2018-08-24T03:34:52.387Z,98378.37
2018-08-24T03:37:22.839Z,98380.02
2018-08-24T03:39:53.431Z,98374.73
2018-08-24T03:42:23.901Z,98384.42
2018-08-24T03:44:54.463Z,98377.78
2018-08-24T03:47:24.956Z,98374.64
2018-08-24T03:49:56.249Z,98373.61
2018-08-24T03:52:26.759Z,98372.75
2018-08-24T03:54:57.241Z,98369.77
2018-08-24T03:57:27.708Z,98370.58
2018-08-24T03:59:58.156Z,98377.10
2018-08-24T04:02:28.892Z,98376.75
2018-08-24T04:04:59.552Z,98378.68
2018-08-24T04:07:29.867Z,98375.66
2018-08-24T04:10:00.582Z,98372.03
2018-08-24T04:12:31.118Z,98377.30
2018-08-24T04:15:02.443Z,98376.66
2018-08-24T04:17:37.740Z,98370.87
2018-08-24T04:20:08.807Z,98369.55
2018-08-24T04:22:39.400Z,98369.72
2018-08-24T04:25:11.086Z,98370.36
2018-08-24T04:27:41.455Z,98369.39
2018-08-24T04:30:12.515Z,98375.47
2018-08-24T04:32:42.936Z,98374.82
2018-08-24T04:35:13.473Z,98372.38
2018-08-24T04:37:43.981Z,98376.33
2018-08-24T04:40:14.521Z,98383.77
2018-08-24T04:42:45.021Z,98387.52
2018-08-24T04:45:15.474Z,98385.72
2018-08-24T04:47:45.807Z,98387.23
2018-08-24T04:50:16.156Z,98384.95
2018-08-24T04:52:46.756Z,98392.08
2018-08-24T04:55:17.215Z,98391.95
2018-08-24T04:57:47.707Z,98395.75
2018-08-24T05:00:18.295Z,98403.36
2018-08-24T05:02:48.871Z,98400.76
2018-08-24T05:05:19.379Z,98403.80
2018-08-24T05:07:49.981Z,98401.06
2018-08-24T05:10:20.636Z,98402.91
2018-08-24T05:12:51.071Z,98402.64
2018-08-24T05:15:21.614Z,98406.14
2018-08-24T05:17:52.289Z,98404.84
2018-08-24T05:20:23.800Z,98409.97
2018-08-24T05:22:54.383Z,98406.53
2018-08-24T05:25:24.920Z,98401.52
2018-08-24T05:27:55.492Z,98408.37
2018-08-24T05:30:26.252Z,98403.36
2018-08-24T05:32:56.737Z,98406.22
2018-08-24T05:35:27.406Z,98409.70
2018-08-24T05:37:57.901Z,98410.61
2018-08-24T05:40:28.569Z,98405.66
2018-08-24T05:42:59.842Z,98412.58
2018-08-24T05:45:30.337Z,98410.34
2018-08-24T05:48:01.233Z,98409.33
2018-08-24T05:50:31.866Z,98414.95
2018-08-24T05:53:02.599Z,98404.33
2018-08-24T05:55:33.285Z,98413.09
2018-08-24T05:58:03.993Z,98407.09
2018-08-24T06:00:37.874Z,98410.34
2018-08-24T06:03:09.924Z,98410.79
2018-08-24T06:05:45.641Z,98410.43
2018-08-24T06:08:17.086Z,98411.94
2018-08-24T06:10:48.537Z,98406.43
2018-08-24T06:13:20.892Z,98404.97
2018-08-24T06:15:51.660Z,98408.41
2018-08-24T06:18:22.626Z,98404.50
2018-08-24T06:20:53.123Z,98411.14
2018-08-24T06:23:23.712Z,98407.05
2018-08-24T06:25:54.408Z,98405.39
2018-08-24T06:28:25.014Z,98413.77
2018-08-24T06:30:55.472Z,98406.03
2018-08-24T06:33:26.201Z,98413.16
2018-08-24T06:38:26.039Z,98416.45
2018-08-24T06:40:56.792Z,98421.34
2018-08-24T06:43:27.356Z,98414.94
2018-08-24T06:45:57.856Z,98421.77
2018-08-24T06:48:28.558Z,98424.95
2018-08-24T06:50:59.379Z,98421.14
2018-08-24T06:53:30.079Z,98422.02
2018-08-24T06:56:00.843Z,98426.62
2018-08-24T06:58:33.720Z,98422.29
2018-08-24T07:01:04.485Z,98425.61
2018-08-24T07:03:36.196Z,98426.39
2018-08-24T07:06:07.355Z,98433.63
2018-08-24T07:08:37.977Z,98432.46
2018-08-24T07:11:09.205Z,98428.84
2018-08-24T07:13:40.807Z,98423.19
2018-08-24T07:16:12.548Z,98428.91
2018-08-24T07:18:43.828Z,98425.58
2018-08-24T07:21:14.562Z,98429.98
2018-08-24T07:23:45.911Z,98427.06
2018-08-24T07:26:16.430Z,98426.66
2018-08-24T07:28:46.933Z,98427.15
2018-08-24T07:31:17.590Z,98428.80
2018-08-24T07:33:48.442Z,98435.22
2018-08-24T07:36:19.575Z,98439.13
2018-08-24T07:38:50.325Z,98432.13
2018-08-24T07:41:21.042Z,98431.55
2018-08-24T07:43:51.663Z,98429.01
2018-08-24T07:46:22.412Z,98432.67
2018-08-24T07:48:53.582Z,98434.30
2018-08-24T07:51:24.631Z,98429.89
2018-08-24T07:53:56.568Z,98433.05
2018-08-24T07:56:29.517Z,98433.93
2018-08-24T07:59:02.207Z,98430.13
2018-08-24T08:01:33.229Z,98430.66
2018-08-24T08:04:06.443Z,98424.97
2018-08-24T08:06:37.529Z,98428.20
2018-08-24T08:09:09.600Z,98426.05
2018-08-24T08:11:41.716Z,98425.86
2018-08-24T08:14:12.487Z,98426.95
2018-08-24T08:16:43.100Z,98419.66
2018-08-24T08:19:13.781Z,98418.80
2018-08-24T08:21:48.094Z,98417.90
2018-08-24T08:24:23.809Z,98424.14
2018-08-24T08:26:54.501Z,98420.42
2018-08-24T08:29:30.639Z,98423.48
2018-08-24T08:32:01.346Z,98421.87
2018-08-24T08:34:36.879Z,98422.66
2018-08-24T08:37:07.913Z,98409.09
2018-08-24T08:39:40.498Z,98415.17
2018-08-24T08:42:11.267Z,98416.40
2018-08-24T08:44:42.689Z,98421.77
2018-08-24T08:47:13.362Z,98416.55
2018-08-24T08:49:43.979Z,98411.65
2018-08-24T08:52:14.875Z,98411.73
2018-08-24T08:54:45.484Z,98405.92
2018-08-24T08:57:16.146Z,98407.55
2018-08-24T08:59:47.569Z,98406.09
2018-08-24T09:02:18.307Z,98404.61
2018-08-24T09:04:50.194Z,98405.19
2018-08-24T09:07:22.840Z,98403.67
2018-08-24T09:09:53.972Z,98400.58
2018-08-24T09:12:25.916Z,98395.49
2018-08-24T09:14:56.929Z,98403.04
2018-08-24T09:17:33.112Z,98388.19
2018-08-24T09:20:09.273Z,98395.34
2018-08-24T09:22:45.026Z,98394.09
2018-08-24T09:25:21.590Z,98388.80
2018-08-24T09:27:58.769Z,98390.92
2018-08-24T09:30:34.244Z,98390.64
2018-08-24T09:33:06.428Z,98391.05
2018-08-24T09:35:37.745Z,98390.00
2018-08-24T09:38:09.012Z,98386.58
2018-08-24T09:40:44.902Z,98381.86
2018-08-24T09:43:20.531Z,98385.41
2018-08-24T09:45:51.263Z,98387.33
2018-08-24T09:48:29.552Z,98384.36
2018-08-24T09:51:05.420Z,98381.25
2018-08-24T09:54:12.519Z,98372.87
2018-08-24T09:56:44.417Z,98374.61
2018-08-24T09:59:14.936Z,98365.16
2018-08-24T10:01:51.092Z,98366.04
2018-08-24T10:04:27.722Z,98359.08
2018-08-24T10:07:03.334Z,98364.38
2018-08-24T10:09:34.026Z,98361.70
2018-08-24T10:12:04.824Z,98357.95
2018-08-24T10:14:35.626Z,98356.83
2018-08-24T10:17:06.246Z,98354.64
2018-08-24T10:19:37.621Z,98353.75
2018-08-24T10:22:08.185Z,98352.78
2018-08-24T10:24:39.359Z,98352.02
2018-08-24T10:27:10.051Z,98340.36
2018-08-24T10:29:40.888Z,98336.64
2018-08-24T10:32:11.659Z,98331.08
2018-08-24T10:34:42.294Z,98321.80
2018-08-24T10:37:13.007Z,98325.88
2018-08-24T10:39:43.663Z,98328.24
2018-08-24T10:42:14.393Z,98324.31
2018-08-24T10:44:45.072Z,98320.63
2018-08-24T10:47:18.070Z,98323.49
2018-08-24T10:49:48.927Z,98322.44
2018-08-24T10:52:19.578Z,98314.50
2018-08-24T10:54:50.565Z,98322.66
2018-08-24T10:57:21.109Z,98323.45
2018-08-24T10:59:51.862Z,98317.24
2018-08-24T11:02:23.696Z,98318.91
2018-08-24T11:04:54.564Z,98321.17
2018-08-24T11:07:25.906Z,98317.67
2018-08-24T11:09:56.442Z,98319.33
2018-08-24T11:12:31.625Z,98312.89
2018-08-24T11:15:04.620Z,98311.63
2018-08-24T11:17:40.249Z,98314.38
2018-08-24T11:20:10.852Z,98306.19
2018-08-24T11:22:43.760Z,98306.66
2018-08-24T11:25:16.720Z,98312.53
2018-08-24T11:27:48.570Z,98308.66
2018-08-24T11:30:21.125Z,98297.84
2018-08-24T11:32:52.964Z,98303.88
2018-08-24T11:35:24.793Z,98296.80
2018-08-24T11:37:56.498Z,98302.31
2018-08-24T11:40:27.404Z,98294.34
2018-08-24T11:42:58.214Z,98297.30
2018-08-24T11:45:29.903Z,98291.07
2018-08-24T11:48:00.726Z,98284.05
2018-08-24T11:50:31.584Z,98277.77
2018-08-24T11:53:02.460Z,98279.17
2018-08-24T11:55:33.091Z,98277.13
2018-08-24T11:58:05.024Z,98276.37
2018-08-24T12:00:36.098Z,98280.71
2018-08-24T12:03:08.511Z,98269.75
2018-08-24T12:05:39.107Z,98269.02
2018-08-24T12:08:10.558Z,98263.03
2018-08-24T12:10:41.181Z,98252.11
2018-08-24T12:13:11.869Z,98258.14
2018-08-24T12:15:42.749Z,98259.88
2018-08-24T12:18:13.568Z,98262.26
2018-08-24T12:20:45.226Z,98256.63
2018-08-24T12:23:15.956Z,98257.61
2018-08-24T12:25:47.751Z,98259.42
2018-08-24T12:28:18.554Z,98248.95
2018-08-24T12:30:50.465Z,98248.63
2018-08-24T12:33:21.559Z,98238.99
2018-08-24T12:35:52.247Z,98231.78
2018-08-24T12:38:23.717Z,98238.59
2018-08-24T12:40:56.582Z,98227.50
2018-08-24T12:43:27.534Z,98223.92
2018-08-24T12:45:59.428Z,98211.09
2018-08-24T12:48:30.198Z,98208.73
2018-08-24T12:51:00.927Z,98205.31
2018-08-24T12:53:31.598Z,98195.73
2018-08-24T12:56:02.448Z,98191.83
2018-08-24T12:58:33.348Z,98185.84
2018-08-24T13:01:04.147Z,98177.64
2018-08-24T13:03:35.691Z,98173.97
2018-08-24T13:06:07.160Z,98173.21
2018-08-24T13:08:37.816Z,98164.14
2018-08-24T13:11:10.573Z,98163.95
2018-08-24T13:13:41.604Z,98164.28
2018-08-24T13:16:13.681Z,98163.16
2018-08-24T13:18:45.372Z,98144.04
2018-08-24T13:21:17.771Z,98151.77
2018-08-24T13:23:48.424Z,98144.08
2018-08-24T13:26:19.138Z,98138.11
2018-08-24T13:28:52.145Z,98144.14
2018-08-24T13:31:25.327Z,98135.50
2018-08-24T13:33:55.952Z,98136.80
2018-08-24T13:36:27.929Z,98130.73
2018-08-24T13:38:58.647Z,98126.86
2018-08-24T13:41:29.499Z,98132.28
2018-08-24T13:44:00.192Z,98135.70
2018-08-24T13:46:31.525Z,98142.26
2018-08-24T13:49:03.120Z,98134.86
2018-08-24T13:51:33.917Z,98128.00
2018-08-24T13:54:07.563Z,98131.28
2018-08-24T13:56:41.694Z,98135.77
2018-08-24T13:59:13.676Z,98128.66
2018-08-24T14:01:45.861Z,98134.02
2018-08-24T14:04:17.072Z,98134.34
2018-08-24T14:06:48.931Z,98126.09
2018-08-24T14:09:20.169Z,98122.40
2018-08-24T14:11:50.988Z,98129.70
2018-08-24T14:14:21.893Z,98118.66
2018-08-24T14:16:53.256Z,98118.67
2018-08-24T14:19:25.329Z,98120.10
2018-08-24T14:21:56.374Z,98118.51
2018-08-24T14:24:29.534Z,98119.07
2018-08-24T14:27:01.311Z,98106.73
2018-08-24T14:29:32.399Z,98105.60
2018-08-24T14:32:05.912Z,98097.62
2018-08-24T14:34:36.791Z,98093.91
2018-08-24T14:37:07.784Z,98095.02
2018-08-24T14:39:38.782Z,98092.91
2018-08-24T14:42:19.156Z,98087.83
2018-08-24T14:44:53.267Z,98088.80
2018-08-24T14:47:27.241Z,98094.17
2018-08-24T14:49:59.600Z,98104.66
2018-08-24T14:52:30.857Z,98110.72
2018-08-24T14:55:12.014Z,98109.58
2018-08-24T14:57:44.841Z,98110.78
2018-08-24T15:00:16.850Z,98108.08
2018-08-24T15:03:04.012Z,98109.94
2018-08-24T15:05:44.929Z,98111.03
2018-08-24T15:08:26.215Z,98116.09
2018-08-24T15:11:01.465Z,98106.91
2018-08-24T15:13:33.450Z,98108.02
2018-08-24T15:16:06.718Z,98105.69
2018-08-24T15:18:45.788Z,98104.00
2018-08-24T15:21:22.684Z,98103.50
2018-08-24T15:23:57.867Z,98108.69
2018-08-24T15:26:31.987Z,98103.72
2018-08-24T15:29:06.629Z,98106.72
2018-08-24T15:31:38.040Z,98107.94
2018-08-24T15:34:09.182Z,98112.86
2018-08-24T15:36:39.895Z,98105.88
2018-08-24T15:39:13.860Z,98104.38
2018-08-24T15:41:45.152Z,98095.27
2018-08-24T15:44:15.858Z,98098.34
2018-08-24T15:46:46.744Z,98101.97
2018-08-24T15:49:17.487Z,98104.64
2018-08-24T15:51:48.246Z,98106.91
2018-08-24T15:54:20.998Z,98101.11
2018-08-24T15:56:52.053Z,98100.41
2018-08-24T15:59:25.328Z,98102.27
2018-08-24T16:01:57.911Z,98102.09
2018-08-24T16:04:28.769Z,98105.36
2018-08-24T16:07:00.270Z,98101.87
2018-08-24T16:09:31.054Z,98102.43
2018-08-24T16:12:03.079Z,98113.36
2018-08-24T16:14:34.310Z,98111.09
2018-08-24T16:17:07.008Z,98111.61
2018-08-24T16:19:37.709Z,98103.63
2018-08-24T16:22:09.679Z,98101.42
2018-08-24T16:24:43.889Z,98105.69
2018-08-24T16:27:18.908Z,98106.77
2018-08-24T16:29:49.513Z,98106.02
2018-08-24T16:32:20.298Z,98104.59
2018-08-24T16:34:51.212Z,98104.75
2018-08-24T16:37:23.071Z,98107.72
2018-08-24T16:39:54.674Z,98104.42
2018-08-24T16:42:25.804Z,98102.06
2018-08-24T16:44:56.728Z,98096.59
2018-08-24T16:47:27.412Z,98095.98
2018-08-24T16:49:58.513Z,98091.47
2018-08-24T16:52:31.118Z,98095.64
2018-08-24T16:55:01.808Z,98095.17
2018-08-24T16:57:32.585Z,98101.35
2018-08-24T17:00:03.443Z,98109.33
2018-08-24T17:02:34.046Z,98108.33
2018-08-24T17:05:05.343Z,98109.88
2018-08-24T17:07:36.118Z,98109.93
2018-08-24T17:10:08.321Z,98112.05
2018-08-24T17:12:39.862Z,98112.05
2018-08-24T17:15:11.479Z,98114.61
2018-08-24T17:17:42.822Z,98118.53
2018-08-24T17:20:13.866Z,98120.58
2018-08-24T17:22:44.823Z,98121.08
2018-08-24T17:25:16.768Z,98126.64
2018-08-24T17:27:47.975Z,98137.53
2018-08-24T17:30:20.083Z,98132.34
2018-08-24T17:32:51.320Z,98126.87
2018-08-24T17:35:23.124Z,98138.81
2018-08-24T17:37:53.919Z,98138.36
2018-08-24T17:40:27.268Z,98140.58
2018-08-24T17:42:58.439Z,98142.05
2018-08-24T17:45:29.763Z,98148.05
2018-08-24T17:48:00.873Z,98149.41
2018-08-24T17:50:31.730Z,98149.53
2018-08-24T17:53:03.081Z,98149.19
2018-08-24T17:55:34.952Z,98155.07
2018-08-24T17:58:06.897Z,98152.14
2018-08-24T18:00:38.698Z,98149.14
2018-08-24T18:03:10.050Z,98155.61
2018-08-24T18:05:41.982Z,98155.55
2018-08-24T18:08:15.081Z,98159.00
2018-08-24T18:10:48.078Z,98155.92
2018-08-24T18:13:19.951Z,98150.86
2018-08-24T18:15:51.457Z,98152.88
2018-08-24T18:18:23.317Z,98161.02
2018-08-24T18:20:55.029Z,98161.36
2018-08-24T18:23:26.605Z,98155.39
2018-08-24T18:25:58.473Z,98159.31
2018-08-24T18:28:30.011Z,98163.06
2018-08-24T18:31:02.440Z,98165.06
2018-08-24T18:33:35.772Z,98166.19
2018-08-24T18:36:08.011Z,98173.41
2018-08-24T18:38:41.138Z,98186.77
2018-08-24T18:41:13.412Z,98184.77
2018-08-24T18:43:45.253Z,98196.33
2018-08-24T18:46:17.077Z,98190.64
2018-08-24T18:48:48.699Z,98187.37
2018-08-24T18:51:20.392Z,98196.63
2018-08-24T18:53:52.136Z,98196.23
2018-08-24T18:56:23.805Z,98200.98
2018-08-24T18:58:56.279Z,98207.31
2018-08-24T19:01:27.755Z,98204.64
2018-08-24T19:04:01.614Z,98200.70
2018-08-24T19:06:33.216Z,98195.48
2018-08-24T19:09:06.083Z,98209.55
2018-08-24T19:11:42.531Z,98211.14
2018-08-24T19:14:15.855Z,98209.93
2018-08-24T19:16:47.357Z,98210.73
2018-08-24T19:19:24.440Z,98215.16
2018-08-24T19:22:03.871Z,98215.58
2018-08-24T19:24:35.587Z,98210.89
2018-08-24T19:27:06.525Z,98215.11
2018-08-24T19:29:43.421Z,98213.77
2018-08-24T19:32:15.204Z,98217.16
2018-08-24T19:34:47.131Z,98205.62
2018-08-24T19:37:18.894Z,98210.16
2018-08-24T19:39:56.009Z,98208.09
2018-08-24T19:42:28.137Z,98212.20
2018-08-24T19:45:00.255Z,98209.20
2018-08-24T19:47:37.742Z,98212.81
2018-08-24T19:50:10.566Z,98207.27
2018-08-24T19:52:42.770Z,98205.39
2018-08-24T19:55:14.968Z,98206.73
2018-08-24T19:57:51.302Z,98197.89
2018-08-24T20:00:25.971Z,98213.03
2018-08-24T20:02:59.020Z,98210.89
2018-08-24T20:05:31.698Z,98209.80
2018-08-24T20:09:14.347Z,98207.27
2018-08-24T20:11:52.450Z,98219.55
2018-08-24T20:14:29.170Z,98219.70
2018-08-24T20:17:07.393Z,98221.41
2018-08-24T20:19:39.683Z,98212.63
2018-08-24T20:22:12.375Z,98212.71
2018-08-24T20:24:44.921Z,98215.17
2018-08-24T20:27:17.757Z,98213.39
2018-08-24T20:29:49.533Z,98220.14
2018-08-24T20:32:21.211Z,98220.84
2018-08-24T20:34:52.840Z,98223.34
2018-08-24T20:37:24.522Z,98226.41
2018-08-24T20:39:56.136Z,98220.97
2018-08-24T20:42:27.848Z,98217.09
2018-08-24T20:44:59.879Z,98212.69
2018-08-24T20:47:35.006Z,98214.39
2018-08-24T20:50:06.124Z,98213.62
2018-08-24T20:52:37.152Z,98213.25
2018-08-24T20:55:08.017Z,98213.88
2018-08-24T20:57:38.702Z,98223.39
2018-08-24T21:00:09.673Z,98221.48
2018-08-24T21:02:40.404Z,98229.67
2018-08-24T21:05:11.451Z,98226.52
2018-08-24T21:07:42.067Z,98220.94
2018-08-24T21:10:13.658Z,98224.22
2018-08-24T21:12:45.341Z,98225.91
2018-08-24T21:15:16.196Z,98234.39
2018-08-24T21:17:46.817Z,98240.42
2018-08-24T21:20:17.445Z,98233.71
2018-08-24T21:22:49.139Z,98232.25
2018-08-24T21:25:19.985Z,98230.50
2018-08-24T21:27:50.776Z,98231.05
2018-08-24T21:30:21.622Z,98230.48
2018-08-24T21:32:52.145Z,98237.33
2018-08-24T21:35:22.628Z,98233.71
2018-08-24T21:37:53.320Z,98239.19
2018-08-24T21:40:24.547Z,98236.97
2018-08-24T21:42:55.343Z,98247.67
2018-08-24T21:45:26.438Z,98243.05
2018-08-24T21:47:57.034Z,98245.78
2018-08-24T21:50:27.787Z,98243.32
2018-08-24T21:52:58.601Z,98240.80
2018-08-24T21:55:29.061Z,98244.72
2018-08-24T21:57:59.789Z,98238.20
2018-08-24T22:00:30.877Z,98240.09
2018-08-24T22:03:02.011Z,98242.00
2018-08-24T22:05:33.779Z,98238.64
2018-08-24T22:08:06.963Z,98244.79
2018-08-24T22:10:37.532Z,98248.65
2018-08-24T22:13:10.181Z,98246.42
2018-08-24T22:15:40.892Z,98249.14
2018-08-24T22:18:11.895Z,98252.09
2018-08-24T22:20:42.566Z,98247.05
2018-08-24T22:23:13.188Z,98253.42
2018-08-24T22:25:44.220Z,98250.63
2018-08-24T22:28:15.350Z,98251.58
2018-08-24T22:30:46.196Z,98248.09
2018-08-24T22:33:16.970Z,98249.12
2018-08-24T22:35:47.726Z,98245.17
2018-08-24T22:38:18.385Z,98244.30
2018-08-24T22:40:49.720Z,98239.63
2018-08-24T22:43:25.492Z,98241.64
2018-08-24T22:45:56.295Z,98236.75
2018-08-24T22:48:27.516Z,98243.84
2018-08-24T22:50:58.355Z,98234.91
2018-08-24T22:53:28.979Z,98231.81
2018-08-24T22:55:59.514Z,98230.06
2018-08-24T22:58:30.379Z,98234.02
2018-08-24T23:01:01.038Z,98229.02
2018-08-24T23:03:33.048Z,98232.63
2018-08-24T23:06:06.405Z,98234.80
2018-08-24T23:08:37.392Z,98234.16
2018-08-24T23:11:08.193Z,98229.23
2018-08-24T23:13:38.812Z,98232.25
2018-08-24T23:16:10.264Z,98231.02
2018-08-24T23:18:42.069Z,98232.74
2018-08-24T23:21:13.209Z,98232.94
2018-08-24T23:23:43.695Z,98225.47
2018-08-24T23:26:14.486Z,98225.80
2018-08-24T23:28:44.978Z,98228.55
2018-08-24T23:31:15.460Z,98228.22
2018-08-24T23:33:45.989Z,98223.05
2018-08-24T23:36:16.520Z,98226.82
2018-08-24T23:38:48.385Z,98224.50
2018-08-24T23:41:18.809Z,98223.81
2018-08-24T23:43:49.438Z,98216.20
2018-08-24T23:46:20.023Z,98216.67
2018-08-24T23:48:50.497Z,98216.70
2018-08-24T23:51:21.055Z,98213.56
2018-08-24T23:53:51.612Z,98213.21
2018-08-24T23:56:22.206Z,98209.84
2018-08-24T23:58:52.863Z,98207.56
